createdAt,value
2017-10-22T14:39:45.369Z,20
2017-10-22T14:40:44.034Z,20
2017-10-22T14:41:44.043Z,20
2017-10-22T14:42:44.053Z,20
2017-10-22T14:43:44.085Z,25
2017-10-22T14:44:44.821Z,25
2017-10-22T14:45:44.467Z,25
2017-10-22T14:46:45.521Z,25
2017-10-22T14:47:45.509Z,25
2017-10-22T14:48:44.578Z,25
2017-10-22T14:49:45.628Z,25
2017-10-22T14:50:45.618Z,25
2017-10-22T14:51:44.966Z,30
2017-10-22T14:52:45.643Z,35
2017-10-22T14:53:45.358Z,40
2017-10-22T14:54:45.657Z,50
2017-10-22T14:55:44.973Z,65
2017-10-22T14:56:44.570Z,75
2017-10-22T14:57:44.979Z,90
2017-10-22T14:58:44.661Z,100
2017-10-22T14:59:44.630Z,105
2017-10-22T15:00:44.705Z,110
2017-10-22T15:01:44.719Z,110
2017-10-22T15:02:44.737Z,105
2017-10-22T15:03:44.837Z,105
2017-10-22T15:04:44.777Z,100
2017-10-22T15:05:45.580Z,100
2017-10-22T15:06:45.369Z,100
2017-10-22T15:07:45.712Z,100
2017-10-22T15:08:45.688Z,100
2017-10-22T15:09:44.873Z,100
2017-10-22T15:10:44.901Z,95
2017-10-22T15:11:44.974Z,90
2017-10-22T15:12:44.615Z,85
2017-10-22T15:13:45.010Z,75
2017-10-22T15:14:44.645Z,70
2017-10-22T15:15:44.990Z,70
2017-10-22T15:16:44.689Z,65
2017-10-22T15:17:44.699Z,60
2017-10-22T15:18:44.723Z,50
2017-10-22T15:19:44.738Z,45
2017-10-22T15:20:44.813Z,40
2017-10-22T15:21:45.964Z,35
2017-10-22T15:22:46.018Z,35
2017-10-22T15:23:46.298Z,30
2017-10-22T15:24:46.524Z,25
2017-10-22T15:25:45.645Z,25
2017-10-22T15:26:45.218Z,25
2017-10-22T15:27:46.046Z,20
2017-10-22T15:28:44.935Z,20
2017-10-22T15:29:45.655Z,20
2017-10-22T15:30:46.643Z,20
2017-10-22T15:31:45.333Z,20
2017-10-22T15:32:45.013Z,20
2017-10-22T15:33:45.034Z,20
2017-10-22T15:34:45.058Z,20
2017-10-22T15:35:45.791Z,20
2017-10-22T15:36:45.095Z,20
2017-10-22T15:37:45.114Z,20
2017-10-22T15:38:45.142Z,20
2017-10-22T15:39:45.530Z,20
2017-10-22T15:40:45.497Z,20
2017-10-22T15:41:45.207Z,20
2017-10-22T15:42:45.312Z,20
2017-10-22T15:43:45.242Z,15
2017-10-22T15:44:45.255Z,15
2017-10-22T15:45:45.308Z,10
2017-10-22T15:46:45.301Z,10
2017-10-22T15:47:45.687Z,10
2017-10-22T15:48:45.394Z,5
2017-10-22T15:49:45.680Z,10
2017-10-22T15:50:46.158Z,10
2017-10-22T15:51:45.423Z,15
2017-10-22T15:52:45.422Z,15
2017-10-22T15:53:45.804Z,20
2017-10-22T15:54:45.461Z,20
2017-10-22T15:55:45.478Z,20
2017-10-22T15:56:45.509Z,15
2017-10-22T15:57:45.842Z,15
2017-10-22T15:58:45.874Z,10
2017-10-22T15:59:45.564Z,10
2017-10-22T16:00:45.581Z,10
2017-10-22T16:01:46.546Z,10
2017-10-22T16:02:45.625Z,10
2017-10-22T16:03:45.649Z,10
2017-10-22T16:04:45.672Z,15
2017-10-22T16:05:45.736Z,15
2017-10-22T16:06:45.694Z,10
2017-10-22T16:07:45.714Z,10
2017-10-22T16:08:46.096Z,10
2017-10-22T16:09:46.133Z,10
2017-10-22T16:10:45.783Z,10
2017-10-22T16:11:45.839Z,5
2017-10-22T16:12:45.823Z,5
2017-10-22T16:13:46.167Z,5
2017-10-22T16:14:45.864Z,5
2017-10-22T16:15:45.928Z,5
2017-10-22T16:16:45.907Z,5
2017-10-22T16:17:46.617Z,0
2017-10-22T16:18:45.936Z,0
2017-10-22T16:19:45.959Z,0
2017-10-22T16:20:46.085Z,0
2017-10-22T16:21:46.323Z,0
2017-10-22T16:22:46.012Z,0
2017-10-22T16:23:46.363Z,0
2017-10-22T16:24:46.050Z,0
2017-10-22T16:25:46.083Z,0
2017-10-22T16:26:46.099Z,0
2017-10-22T16:27:46.432Z,0
2017-10-22T16:28:46.492Z,0
2017-10-22T16:29:46.184Z,0
2017-10-22T16:30:46.183Z,0
2017-10-22T16:31:46.208Z,0
2017-10-22T16:32:46.216Z,0
2017-10-22T16:33:46.244Z,0
2017-10-22T16:34:46.270Z,0
2017-10-22T16:35:46.304Z,0
2017-10-22T16:36:46.651Z,0
2017-10-22T16:37:46.316Z,0
2017-10-22T16:38:46.344Z,0
2017-10-22T16:39:46.454Z,0
2017-10-22T16:40:46.390Z,0
2017-10-22T16:41:47.067Z,0
2017-10-22T16:42:46.822Z,0
2017-10-22T16:43:46.758Z,0
2017-10-22T16:44:46.490Z,0
2017-10-22T16:45:46.806Z,0
2017-10-22T16:46:46.850Z,0
2017-10-22T16:47:46.496Z,0
2017-10-22T16:48:46.851Z,0
2017-10-22T16:49:46.534Z,0
2017-10-22T16:50:46.549Z,0
2017-10-22T16:51:46.909Z,0
2017-10-22T16:52:46.583Z,0
2017-10-22T16:53:46.591Z,0
2017-10-22T16:54:46.667Z,0
2017-10-22T16:55:46.646Z,0
2017-10-22T16:56:46.665Z,0
2017-10-22T16:57:47.011Z,0
2017-10-22T16:58:46.694Z,0
2017-10-22T16:59:47.039Z,0
2017-10-22T17:00:46.723Z,0
2017-10-22T17:01:46.745Z,0
2017-10-22T17:02:48.310Z,0
2017-10-22T17:03:47.103Z,0
2017-10-22T17:04:47.126Z,0
2017-10-22T17:05:46.838Z,0
2017-10-22T17:06:46.848Z,0
2017-10-22T17:07:46.861Z,0
2017-10-22T17:08:46.880Z,0
2017-10-22T17:09:46.945Z,0
2017-10-22T17:10:47.273Z,0
2017-10-22T17:11:46.933Z,0
2017-10-22T17:12:46.946Z,0
2017-10-22T17:13:46.975Z,0
2017-10-22T17:14:47.309Z,0
2017-10-22T17:15:47.005Z,0
2017-10-22T17:16:47.015Z,0
2017-10-22T17:17:47.050Z,0
2017-10-22T17:18:47.065Z,0
2017-10-22T17:19:47.077Z,0
2017-10-22T17:20:47.112Z,0
2017-10-22T17:21:47.123Z,0
2017-10-22T17:22:47.470Z,0
2017-10-22T17:23:47.492Z,0
2017-10-22T17:24:47.222Z,0
2017-10-22T17:25:47.520Z,0
2017-10-22T17:26:47.545Z,0
2017-10-22T17:27:47.550Z,0
2017-10-22T17:28:47.251Z,0
2017-10-22T17:29:47.597Z,0
2017-10-22T17:30:47.290Z,0
2017-10-22T17:31:47.302Z,0
2017-10-22T17:32:47.728Z,0
2017-10-22T17:33:47.357Z,0
2017-10-22T17:34:47.350Z,0
2017-10-22T17:35:47.372Z,0
2017-10-22T17:36:47.449Z,0
2017-10-22T17:37:47.410Z,0
2017-10-22T17:38:47.432Z,0
2017-10-22T17:39:47.454Z,0
2017-10-22T17:40:47.793Z,0
2017-10-22T17:41:47.490Z,0
2017-10-22T17:42:47.500Z,0
2017-10-22T17:43:47.528Z,0
2017-10-22T17:44:47.551Z,0
2017-10-22T17:45:47.886Z,0
2017-10-22T17:46:47.906Z,0
2017-10-22T17:47:47.601Z,0
2017-10-22T17:48:47.624Z,0
2017-10-22T17:49:47.633Z,0
2017-10-22T17:50:47.992Z,0
2017-10-22T17:51:47.666Z,0
2017-10-22T17:52:48.022Z,0
2017-10-22T17:53:47.720Z,0
2017-10-22T17:54:47.723Z,0
2017-10-22T17:55:48.072Z,0
2017-10-22T17:56:47.758Z,0
2017-10-22T17:57:47.792Z,0
2017-10-22T17:58:47.801Z,0
2017-10-22T17:59:48.154Z,0
2017-10-22T18:00:48.158Z,0
2017-10-22T18:01:47.858Z,0
2017-10-22T18:02:47.887Z,0
2017-10-22T18:03:47.899Z,0
2017-10-22T18:04:47.910Z,0
2017-10-22T18:05:47.935Z,0
2017-10-22T18:06:47.944Z,0
2017-10-22T18:07:47.961Z,0
2017-10-22T18:08:48.632Z,0
2017-10-22T18:09:48.481Z,0
2017-10-22T18:10:48.019Z,0
2017-10-22T18:11:48.041Z,0
2017-10-22T18:12:48.071Z,0
2017-10-22T18:13:48.409Z,0
2017-10-22T18:14:48.103Z,0
2017-10-22T18:15:48.120Z,0
2017-10-22T18:16:48.129Z,0
2017-10-22T18:17:48.154Z,0
2017-10-22T18:18:48.167Z,0
2017-10-22T18:19:48.511Z,0
2017-10-22T18:20:48.222Z,0
2017-10-22T18:21:48.231Z,0
2017-10-22T18:22:48.245Z,0
2017-10-22T18:23:48.580Z,0
2017-10-22T18:24:48.594Z,0
2017-10-22T18:25:48.352Z,0
2017-10-22T18:26:48.311Z,0
2017-10-22T18:27:48.337Z,0
2017-10-22T18:28:48.667Z,0
2017-10-22T18:29:48.355Z,0
2017-10-22T18:30:48.377Z,0
2017-10-22T18:31:48.729Z,0
2017-10-22T18:32:48.420Z,0
2017-10-22T18:33:48.432Z,0
2017-10-22T18:34:48.449Z,0
2017-10-22T18:35:48.469Z,0
2017-10-22T18:36:48.843Z,0
2017-10-22T18:37:48.519Z,0
2017-10-22T18:38:48.532Z,0
2017-10-22T18:39:48.882Z,0
2017-10-22T18:40:48.986Z,0
2017-10-22T18:41:48.902Z,0
2017-10-22T18:42:48.604Z,0
2017-10-22T18:43:48.941Z,0
2017-10-22T18:44:48.639Z,0
2017-10-22T18:45:48.655Z,0
2017-10-22T18:46:48.662Z,0
2017-10-22T18:47:48.709Z,0
2017-10-22T18:48:49.046Z,0
2017-10-22T18:49:48.703Z,0
2017-10-22T18:50:48.738Z,0
2017-10-22T18:51:48.751Z,0
2017-10-22T18:52:48.768Z,0
2017-10-22T18:53:49.121Z,0
2017-10-22T18:54:49.141Z,0
2017-10-22T18:55:48.825Z,0
2017-10-22T18:56:49.165Z,0
2017-10-22T18:57:48.906Z,0
2017-10-22T18:58:49.202Z,0
2017-10-22T18:59:48.899Z,0
2017-10-22T19:00:48.921Z,0
2017-10-22T19:01:49.253Z,0
2017-10-22T19:02:48.950Z,0
2017-10-22T19:03:48.968Z,0
2017-10-22T19:04:48.985Z,0
2017-10-22T19:05:49.002Z,0
2017-10-22T19:06:49.046Z,0
2017-10-22T19:07:49.359Z,0
2017-10-22T19:08:49.376Z,0
2017-10-22T19:09:49.068Z,0
2017-10-22T19:10:49.093Z,0
2017-10-22T19:11:49.107Z,0
2017-10-22T19:12:49.457Z,0
2017-10-22T19:13:49.802Z,0
2017-10-22T19:14:49.177Z,0
2017-10-22T19:15:49.554Z,0
2017-10-22T19:16:49.197Z,0
2017-10-22T19:17:49.209Z,0
2017-10-22T19:18:49.238Z,0
2017-10-22T19:19:49.571Z,0
2017-10-22T19:20:49.291Z,0
2017-10-22T19:21:49.289Z,0
2017-10-22T19:22:49.301Z,0
2017-10-22T19:23:49.326Z,0
2017-10-22T19:24:50.010Z,0
2017-10-22T19:25:49.351Z,0
2017-10-22T19:26:49.375Z,0
2017-10-22T19:27:49.723Z,0
2017-10-22T19:28:49.425Z,0
2017-10-22T19:29:49.749Z,0
2017-10-22T19:30:49.444Z,0
2017-10-22T19:31:49.847Z,0
2017-10-22T19:32:49.493Z,0
2017-10-22T19:33:49.501Z,0
2017-10-22T19:34:49.530Z,0
2017-10-22T19:35:49.912Z,0
2017-10-22T19:36:49.546Z,0
2017-10-22T19:37:49.567Z,0
2017-10-22T19:38:49.582Z,0
2017-10-22T19:39:50.303Z,0
2017-10-22T19:40:49.935Z,0
2017-10-22T19:41:49.636Z,0
2017-10-22T19:42:49.973Z,0
2017-10-22T19:43:50.056Z,0
2017-10-22T19:44:50.401Z,0
2017-10-22T19:45:49.723Z,0
2017-10-22T19:46:50.046Z,0
2017-10-22T19:47:50.077Z,0
2017-10-22T19:48:49.763Z,0
2017-10-22T19:49:49.822Z,0
2017-10-22T19:50:50.118Z,0
2017-10-22T19:51:50.128Z,0
2017-10-22T19:52:49.841Z,0
2017-10-22T19:53:49.843Z,0
2017-10-22T19:54:49.857Z,0
2017-10-22T19:55:49.878Z,0
2017-10-22T19:56:49.906Z,0
2017-10-22T19:57:49.919Z,0
2017-10-22T19:58:49.923Z,0
2017-10-22T19:59:49.964Z,0
2017-10-22T20:00:49.966Z,0
2017-10-22T20:01:50.970Z,0
2017-10-22T20:02:49.999Z,0
2017-10-22T20:03:50.018Z,0
2017-10-22T20:04:50.040Z,0
2017-10-22T20:05:50.110Z,0
2017-10-22T20:06:50.416Z,0
2017-10-22T20:07:50.085Z,0
2017-10-22T20:08:50.112Z,0
2017-10-22T20:09:50.137Z,0
2017-10-22T20:10:50.461Z,0
2017-10-22T20:11:50.486Z,0
2017-10-22T20:12:50.170Z,0
2017-10-22T20:13:50.194Z,0
2017-10-22T20:14:50.534Z,0
2017-10-22T20:15:50.227Z,0
2017-10-22T20:16:51.103Z,0
2017-10-22T20:17:50.264Z,0
2017-10-22T20:18:50.283Z,0
2017-10-22T20:19:50.305Z,0
2017-10-22T20:20:50.634Z,0
2017-10-22T20:21:50.361Z,0
2017-10-22T20:22:50.349Z,0
2017-10-22T20:23:50.361Z,0
2017-10-22T20:24:50.378Z,0
2017-10-22T20:25:50.395Z,0
2017-10-22T20:26:50.422Z,0
2017-10-22T20:27:50.761Z,0
2017-10-22T20:28:50.453Z,0
2017-10-22T20:29:50.471Z,0
2017-10-22T20:30:50.485Z,0
2017-10-22T20:31:50.498Z,0
2017-10-22T20:32:50.523Z,0
2017-10-22T20:33:50.545Z,0
2017-10-22T20:34:50.874Z,0
2017-10-22T20:35:50.591Z,0
2017-10-22T20:36:50.585Z,0
2017-10-22T20:37:50.948Z,0
2017-10-22T20:38:50.622Z,0
2017-10-22T20:39:50.643Z,0
2017-10-22T20:40:50.662Z,0
2017-10-22T20:41:50.935Z,0
2017-10-22T20:42:50.688Z,0
2017-10-22T20:43:50.725Z,0
2017-10-22T20:44:50.726Z,0
2017-10-22T20:45:50.758Z,0
2017-10-22T20:46:51.108Z,0
2017-10-22T20:47:50.770Z,0
2017-10-22T20:48:50.803Z,0
2017-10-22T20:49:51.130Z,0
2017-10-22T20:50:50.838Z,0
2017-10-22T20:51:50.852Z,0
2017-10-22T20:52:51.198Z,0
2017-10-22T20:53:50.880Z,0
2017-10-22T20:54:51.236Z,0
2017-10-22T20:55:50.913Z,0
2017-10-22T20:56:51.270Z,0
2017-10-22T20:57:50.962Z,0
2017-10-22T20:58:51.002Z,0
2017-10-22T20:59:50.984Z,0
2017-10-22T21:00:51.058Z,0
2017-10-22T21:01:51.026Z,0
2017-10-22T21:02:51.037Z,0
2017-10-22T21:03:51.398Z,0
2017-10-22T21:04:51.082Z,0
2017-10-22T21:05:51.092Z,0
2017-10-22T21:06:51.107Z,0
2017-10-22T21:07:51.125Z,0
2017-10-22T21:08:51.148Z,0
2017-10-22T21:09:51.157Z,0
2017-10-22T21:10:51.502Z,0
2017-10-22T21:11:51.202Z,0
2017-10-22T21:12:51.235Z,0
2017-10-22T21:13:51.228Z,0
2017-10-22T21:14:51.247Z,0
2017-10-22T21:15:51.272Z,0
2017-10-22T21:16:51.608Z,0
2017-10-22T21:17:51.352Z,0
2017-10-22T21:18:52.291Z,0
2017-10-22T21:19:51.696Z,0
2017-10-22T21:20:51.370Z,0
2017-10-22T21:21:51.392Z,0
2017-10-22T21:22:51.717Z,0
2017-10-22T21:23:51.409Z,0
2017-10-22T21:24:51.440Z,0
2017-10-22T21:25:51.446Z,0
2017-10-22T21:26:51.671Z,0
2017-10-22T21:27:51.483Z,0
2017-10-22T21:28:51.501Z,0
2017-10-22T21:29:51.512Z,0
2017-10-22T21:30:51.539Z,0
2017-10-22T21:31:51.548Z,0
2017-10-22T21:32:51.965Z,0
2017-10-22T21:33:51.588Z,0
2017-10-22T21:34:51.602Z,0
2017-10-22T21:35:51.624Z,0
2017-10-22T21:36:51.961Z,0
2017-10-22T21:37:51.668Z,0
2017-10-22T21:38:51.698Z,0
2017-10-22T21:39:51.696Z,0
2017-10-22T21:40:51.730Z,0
2017-10-22T21:41:51.719Z,0
2017-10-22T21:42:51.748Z,0
2017-10-22T21:43:51.761Z,0
2017-10-22T21:44:51.777Z,0
2017-10-22T21:45:51.800Z,0
2017-10-22T21:46:51.815Z,0
2017-10-22T21:47:52.159Z,0
2017-10-22T21:48:51.901Z,0
2017-10-22T21:49:51.892Z,0
2017-10-22T21:50:51.912Z,0
2017-10-22T21:51:51.903Z,0
2017-10-22T21:52:51.920Z,0
2017-10-22T21:53:51.941Z,0
2017-10-22T21:54:51.959Z,0
2017-10-22T21:55:52.003Z,0
2017-10-22T21:56:51.999Z,0
2017-10-22T21:57:52.011Z,0
2017-10-22T21:58:52.040Z,0
2017-10-22T21:59:52.051Z,0
2017-10-22T22:00:52.064Z,0
2017-10-22T22:01:52.082Z,0
2017-10-22T22:02:52.424Z,0
2017-10-22T22:03:52.120Z,0
2017-10-22T22:04:52.152Z,0
2017-10-22T22:05:52.158Z,0
2017-10-22T22:06:52.494Z,0
2017-10-22T22:07:52.877Z,0
2017-10-22T22:08:52.213Z,0
2017-10-22T22:09:52.557Z,0
2017-10-22T22:10:52.248Z,0
2017-10-22T22:11:52.264Z,0
2017-10-22T22:12:52.610Z,0
2017-10-22T22:13:52.309Z,0
2017-10-22T22:14:52.317Z,0
2017-10-22T22:15:52.346Z,0
2017-10-22T22:16:52.355Z,0
2017-10-22T22:17:52.366Z,0
2017-10-22T22:18:52.724Z,0
2017-10-22T22:19:52.414Z,0
2017-10-22T22:20:52.415Z,0
2017-10-22T22:21:52.793Z,0
2017-10-22T22:22:52.457Z,0
2017-10-22T22:23:52.810Z,0
2017-10-22T22:24:52.813Z,0
2017-10-22T22:25:53.173Z,0
2017-10-22T22:26:52.575Z,0
2017-10-22T22:27:52.555Z,0
2017-10-22T22:28:52.884Z,0
2017-10-22T22:29:52.580Z,0
2017-10-22T22:30:52.618Z,0
2017-10-22T22:31:52.959Z,0
2017-10-22T22:32:52.633Z,0
2017-10-22T22:33:52.991Z,0
2017-10-22T22:34:52.666Z,0
2017-10-22T22:35:52.687Z,0
2017-10-22T22:36:52.714Z,0
2017-10-22T22:37:52.733Z,0
2017-10-22T22:38:52.737Z,0
2017-10-22T22:39:53.094Z,0
2017-10-22T22:40:53.127Z,0
2017-10-22T22:41:52.789Z,0
2017-10-22T22:42:52.831Z,0
2017-10-22T22:43:52.834Z,0
2017-10-22T22:44:53.185Z,0
2017-10-22T22:45:52.863Z,0
2017-10-22T22:46:53.207Z,0
2017-10-22T22:47:52.925Z,0
2017-10-22T22:48:52.921Z,0
2017-10-22T22:49:52.934Z,0
2017-10-22T22:50:52.957Z,0
2017-10-22T22:51:53.616Z,0
2017-10-22T22:52:52.983Z,0
2017-10-22T22:53:53.009Z,0
2017-10-22T22:54:53.017Z,0
2017-10-22T22:55:53.367Z,0
2017-10-22T22:56:53.393Z,0
2017-10-22T22:57:53.075Z,0
2017-10-22T22:58:53.140Z,0
2017-10-22T22:59:53.108Z,0
2017-10-22T23:00:53.122Z,0
2017-10-22T23:01:53.151Z,0
2017-10-22T23:02:53.491Z,0
2017-10-22T23:03:53.186Z,0
2017-10-22T23:04:53.183Z,0
2017-10-22T23:05:53.548Z,0
2017-10-22T23:06:53.228Z,0
2017-10-22T23:07:53.255Z,0
2017-10-22T23:08:53.275Z,0
2017-10-22T23:09:53.607Z,0
2017-10-22T23:10:53.319Z,0
2017-10-22T23:11:53.630Z,0
2017-10-22T23:12:53.334Z,0
2017-10-22T23:13:53.747Z,0
2017-10-22T23:14:53.361Z,0
2017-10-22T23:15:53.390Z,0
2017-10-22T23:16:53.395Z,0
2017-10-22T23:17:53.425Z,0
2017-10-22T23:18:53.758Z,0
2017-10-22T23:19:53.464Z,0
2017-10-22T23:20:53.464Z,0
2017-10-22T23:21:53.486Z,0
2017-10-22T23:22:53.505Z,0
2017-10-22T23:23:53.512Z,0
2017-10-22T23:24:53.553Z,0
2017-10-22T23:25:53.866Z,0
2017-10-22T23:26:53.903Z,0
2017-10-22T23:27:53.584Z,0
2017-10-22T23:28:53.614Z,0
2017-10-22T23:29:53.623Z,0
2017-10-22T23:30:53.640Z,0
2017-10-22T23:31:53.982Z,0
2017-10-22T23:32:53.999Z,0
2017-10-22T23:33:54.021Z,0
2017-10-22T23:34:53.709Z,0
2017-10-22T23:35:53.727Z,0
2017-10-22T23:36:53.738Z,0
2017-10-22T23:37:54.080Z,0
2017-10-22T23:38:54.123Z,0
2017-10-22T23:39:53.795Z,0
2017-10-22T23:40:53.816Z,0
2017-10-22T23:41:53.833Z,0
2017-10-22T23:42:53.841Z,0
2017-10-22T23:43:54.181Z,0
2017-10-22T23:44:54.213Z,0
2017-10-22T23:45:53.892Z,0
2017-10-22T23:46:53.932Z,0
2017-10-22T23:47:54.270Z,0
2017-10-22T23:48:53.948Z,0
2017-10-22T23:49:53.959Z,0
2017-10-22T23:50:53.976Z,0
2017-10-22T23:51:54.697Z,0
2017-10-22T23:52:54.673Z,0
2017-10-22T23:53:54.037Z,0
2017-10-22T23:54:54.377Z,0
2017-10-22T23:55:54.071Z,0
2017-10-22T23:56:54.426Z,0
2017-10-22T23:57:54.426Z,0
2017-10-22T23:58:54.439Z,0
2017-10-22T23:59:54.137Z,0
